Time;durP1;ratioP1;P1;durP2;ratioP2;P2;SDS_P1;SDS_P2;PMS_P1;PMS_P2;Temp;Humidity;BMP_temperature;BMP_pressure;BME280_temperature;BME280_humidity;BME280_pressure;Samples;Min_cycle;Max_cycle;Signal;HPM_P1;HPM_P2
2022/03/19 00:00:21;;;;;;;3.85;1.85;;;17.90;43.90;16.90;104131.00;;;;5064869;28;20045;-64
2022/03/19 00:03:07;;;;;;;;;;;17.90;43.90;16.90;104136.00;;;;5046531;28;20040;-64
2022/03/19 00:05:53;;;;;;;6.07;1.95;;;17.90;43.90;16.90;104133.00;;;;5059701;28;20321;-64
2022/03/19 00:08:39;;;;;;;4.45;2.30;;;18.00;43.90;16.90;104130.00;;;;5054710;28;20047;-64
2022/03/19 00:11:25;;;;;;;5.45;1.73;;;17.90;43.90;16.90;104125.00;;;;5058084;28;20487;-65
2022/03/19 00:14:12;;;;;;;4.55;1.85;;;18.00;44.00;16.90;104133.00;;;;5062121;28;20041;-64
2022/03/19 00:16:59;;;;;;;4.70;2.13;;;17.90;44.00;16.90;104129.00;;;;5061272;28;20119;-64
2022/03/19 00:19:45;;;;;;;5.20;1.65;;;17.90;44.00;16.90;104129.00;;;;5063170;28;20043;-64
2022/03/19 00:22:31;;;;;;;5.18;1.98;;;18.00;44.10;16.90;104136.00;;;;5056545;28;20448;-64
2022/03/19 00:25:17;;;;;;;4.75;1.88;;;17.90;44.10;16.90;104122.00;;;;5059143;28;20036;-64
2022/03/19 00:28:03;;;;;;;6.63;1.85;;;17.90;44.10;16.90;104136.00;;;;5063070;28;20044;-64
2022/03/19 00:30:49;;;;;;;7.25;2.40;;;17.90;44.20;16.90;104137.00;;;;5051938;28;20100;-64
2022/03/19 00:33:35;;;;;;;8.75;2.70;;;17.90;44.10;16.90;104135.00;;;;5058670;28;20505;-64
2022/03/19 00:36:21;;;;;;;5.80;2.00;;;17.90;44.90;16.90;104142.00;;;;5056320;28;20106;-64
2022/03/19 00:39:07;;;;;;;6.45;2.00;;;17.90;44.20;16.90;104140.00;;;;5057640;28;20474;-64
2022/03/19 00:41:54;;;;;;;4.78;1.98;;;17.90;44.20;16.90;104138.00;;;;5051532;28;20043;-64
2022/03/19 00:44:40;;;;;;;5.03;2.03;;;17.90;44.30;16.90;104133.00;;;;5056823;28;20102;-64
2022/03/19 00:47:26;;;;;;;4.90;1.95;;;17.90;44.20;16.90;104137.00;;;;5041643;28;20044;-64
2022/03/19 00:50:12;;;;;;;6.05;1.70;;;17.90;44.30;16.90;104137.00;;;;5059512;28;20403;-64
2022/03/19 00:52:58;;;;;;;5.80;1.70;;;17.90;44.30;16.90;104140.00;;;;5044073;28;20036;-64
2022/03/19 00:55:44;;;;;;;4.85;2.03;;;17.80;44.20;16.90;104137.00;;;;5055638;28;20044;-64
2022/03/19 00:58:30;;;;;;;9.07;2.47;;;17.80;44.20;16.90;104129.00;;;;5063400;28;20037;-64
2022/03/19 01:01:16;;;;;;;5.00;2.00;;;17.90;44.30;16.90;104138.00;;;;5065336;28;20374;-64
2022/03/19 01:04:02;;;;;;;4.22;1.73;;;17.90;44.30;16.90;104140.00;;;;5054765;28;20052;-64
2022/03/19 01:06:48;;;;;;;7.85;1.40;;;17.90;44.30;16.90;104143.00;;;;5063877;28;20049;-64
2022/03/19 01:09:34;;;;;;;6.05;1.85;;;17.90;44.30;16.90;104138.00;;;;5049011;28;20036;-64
2022/03/19 01:12:20;;;;;;;8.48;2.50;;;17.90;44.30;16.90;104141.00;;;;5058750;28;20037;-64
2022/03/19 01:15:08;;;;;;;6.55;2.00;;;17.90;44.40;16.90;104131.00;;;;5067067;28;20392;-64
2022/03/19 01:17:54;;;;;;;4.95;1.90;;;17.90;44.40;16.80;104143.00;;;;5052171;28;20045;-64
2022/03/19 01:20:41;;;;;;;7.28;1.90;;;17.80;44.30;16.80;104132.00;;;;5055019;28;20071;-65
2022/03/19 01:23:28;;;;;;;4.35;1.70;;;17.80;44.40;16.80;104137.00;;;;5055182;28;20049;-64
2022/03/19 01:26:14;;;;;;;6.38;1.85;;;17.80;44.30;16.80;104120.00;;;;5057006;28;20043;-64
2022/03/19 01:29:00;;;;;;;4.88;1.75;;;17.90;45.00;16.80;104124.00;;;;5063894;28;20044;-64
2022/03/19 01:31:46;;;;;;;3.65;1.67;;;17.80;44.30;16.80;104120.00;;;;5059593;28;20036;-64
2022/03/19 01:34:32;;;;;;;6.50;1.95;;;17.80;44.40;16.80;104126.00;;;;5076900;28;20452;-64
2022/03/19 01:37:18;;;;;;;5.88;1.80;;;17.70;44.30;16.80;104131.00;;;;5063537;28;20036;-64
2022/03/19 01:40:05;;;;;;;4.60;1.63;;;17.80;44.40;16.80;104126.00;;;;5046216;28;20044;-64
2022/03/19 01:42:52;;;;;;;4.78;1.70;;;17.80;44.40;16.80;104129.00;;;;5033736;28;20056;-64
2022/03/19 01:45:38;;;;;;;5.05;1.77;;;17.80;44.40;16.80;104128.00;;;;5039715;28;20383;-64
2022/03/19 01:48:25;;;;;;;4.60;2.00;;;17.80;44.40;16.80;104123.00;;;;5048352;28;20051;-64
2022/03/19 01:51:11;;;;;;;4.55;1.85;;;17.80;44.40;16.80;104122.00;;;;5055689;28;20518;-64
2022/03/19 01:53:57;;;;;;;5.05;1.90;;;17.70;45.00;16.80;104131.00;;;;5058360;28;20279;-64
2022/03/19 01:56:44;;;;;;;6.60;1.70;;;17.70;44.30;16.80;104124.00;;;;5058438;28;20119;-64
2022/03/19 01:59:35;;;;;;;5.65;1.88;;;17.70;44.40;16.80;104132.00;;;;5050923;28;20043;-64
2022/03/19 02:02:21;;;;;;;7.57;1.80;;;17.70;44.40;16.70;104125.00;;;;5065803;28;20053;-64
2022/03/19 02:05:12;;;;;;;7.63;1.92;;;17.70;44.40;16.70;104129.00;;;;5045294;28;20479;-65
2022/03/19 02:07:58;;;;;;;3.95;1.67;;;17.70;44.40;16.70;104121.00;;;;5058832;28;20045;-64
2022/03/19 02:10:45;;;;;;;3.95;2.13;;;17.70;44.40;16.70;104118.00;;;;5067351;28;20040;-64
2022/03/19 02:13:31;;;;;;;6.13;1.80;;;17.70;44.40;16.70;104119.00;;;;5044106;28;20041;-64
2022/03/19 02:16:17;;;;;;;5.43;1.70;;;17.70;44.40;16.70;104115.00;;;;5067372;28;20395;-64
2022/03/19 02:19:03;;;;;;;7.18;2.50;;;17.70;44.40;16.70;104114.00;;;;5054350;28;20084;-64
2022/03/19 02:21:50;;;;;;;5.60;1.63;;;17.70;44.40;16.70;104112.00;;;;5060447;28;20470;-64
2022/03/19 02:27:40;;;;;;;4.93;2.15;;;17.60;44.50;16.70;104110.00;;;;5056887;28;20124;-64
2022/03/19 02:30:27;;;;;;;6.00;2.85;;;17.60;44.40;16.70;104108.00;;;;5074856;28;20472;-64
2022/03/19 02:33:13;;;;;;;5.00;1.80;;;17.60;44.40;16.70;104108.00;;;;5029706;28;20048;-64
2022/03/19 02:35:59;;;;;;;4.47;1.90;;;17.60;44.40;16.70;104104.00;;;;5040745;28;20047;-64
2022/03/19 02:38:48;;;;;;;5.88;1.67;;;17.60;44.40;16.70;104098.00;;;;5055570;28;20040;-64
2022/03/19 02:41:34;;;;;;;6.20;1.80;;;17.60;44.40;16.70;104089.00;;;;5060233;28;20040;-64
2022/03/19 02:44:20;;;;;;;6.63;2.03;;;17.60;44.40;16.70;104079.00;;;;5056700;28;20055;-64
2022/03/19 02:47:07;;;;;;;4.47;2.00;;;17.50;44.30;16.70;104088.00;;;;5038802;28;20044;-64
2022/03/19 02:49:53;;;;;;;5.65;1.98;;;17.60;44.40;16.70;104081.00;;;;5041497;28;20637;-64
2022/03/19 02:52:40;;;;;;;7.22;1.60;;;17.60;44.40;16.60;104086.00;;;;5060551;28;20047;-64
2022/03/19 02:55:30;;;;;;;6.45;2.25;;;17.60;44.40;16.60;104091.00;;;;5058066;28;20051;-64
2022/03/19 02:58:16;;;;;;;5.82;1.90;;;17.60;44.40;16.60;104083.00;;;;5030812;28;20526;-64
2022/03/19 03:01:03;;;;;;;5.72;2.03;;;17.60;44.40;16.60;104072.00;;;;5057145;28;20044;-64
2022/03/19 03:03:49;;;;;;;4.53;2.00;;;17.60;44.40;16.60;104074.00;;;;5046179;28;20047;-64
2022/03/19 03:06:36;;;;;;;5.65;1.92;;;17.60;44.40;16.60;104075.00;;;;5073076;28;20127;-64
2022/03/19 03:09:24;;;;;;;3.65;1.90;;;17.50;44.30;16.60;104061.00;;;;5040578;28;20060;-64
2022/03/19 03:12:10;;;;;;;6.85;2.15;;;17.50;44.20;16.60;104068.00;;;;5036696;28;20043;-64
2022/03/19 03:14:59;;;;;;;4.68;1.63;;;17.50;44.30;16.60;104064.00;;;;5063312;28;20551;-64
2022/03/19 03:17:45;;;;;;;2.70;1.58;;;17.50;45.00;16.60;104059.00;;;;5056992;28;20123;-64
2022/03/19 03:20:31;;;;;;;4.85;1.67;;;17.50;44.30;16.60;104063.00;;;;5060227;28;20188;-64
2022/03/19 03:23:17;;;;;;;4.40;1.55;;;17.50;44.30;16.60;104052.00;;;;5033442;28;20049;-64
2022/03/19 03:26:03;;;;;;;4.90;2.03;;;17.50;44.30;16.60;104060.00;;;;5057517;28;20048;-64
2022/03/19 03:28:49;;;;;;;4.53;1.65;;;17.50;44.30;16.60;104058.00;;;;5062888;28;20293;-64
2022/03/19 03:31:35;;;;;;;3.60;1.80;;;17.50;44.30;16.60;104065.00;;;;5044168;28;20064;-64
2022/03/19 03:34:21;;;;;;;4.82;1.83;;;17.50;44.30;16.50;104063.00;;;;5046506;28;20045;-64
2022/03/19 03:37:08;;;;;;;3.58;1.73;;;17.40;44.30;16.50;104068.00;;;;5055740;28;20041;-64
2022/03/19 03:39:54;;;;;;;5.13;1.55;;;17.50;44.30;16.60;104065.00;;;;5057084;28;20124;-64
2022/03/19 03:42:41;;;;;;;4.03;1.73;;;17.50;44.30;16.50;104070.00;;;;5054016;28;20047;-64
2022/03/19 03:45:31;;;;;;;6.43;2.13;;;17.50;44.40;16.50;104060.00;;;;5062647;28;20460;-64
2022/03/19 03:48:17;;;;;;;4.30;1.85;;;17.50;44.30;16.50;104073.00;;;;5043441;28;20068;-64
2022/03/19 03:51:03;;;;;;;5.50;1.90;;;17.50;44.30;16.50;104069.00;;;;5054750;28;20041;-64
2022/03/19 03:53:49;;;;;;;4.13;1.70;;;17.50;44.30;16.50;104064.00;;;;5033975;28;20270;-64
2022/03/19 03:56:35;;;;;;;5.10;1.85;;;17.40;44.20;16.50;104065.00;;;;5041856;28;20039;-64
2022/03/19 03:59:24;;;;;;;5.03;2.15;;;17.50;44.30;16.50;104065.00;;;;5042168;28;20131;-64
2022/03/19 04:02:11;;;;;;;4.25;1.63;;;17.50;44.20;16.50;104066.00;;;;5060893;28;20044;-64
2022/03/19 04:04:57;;;;;;;4.10;2.10;;;17.40;44.20;16.50;104064.00;;;;5060256;28;20041;-64
2022/03/19 04:07:43;;;;;;;5.25;2.35;;;17.40;44.20;16.50;104070.00;;;;5057392;28;20047;-64
2022/03/19 04:10:30;;;;;;;4.13;1.67;;;17.40;44.20;16.50;104065.00;;;;5086084;28;20049;-64
2022/03/19 04:13:16;;;;;;;4.72;1.70;;;17.40;44.10;16.50;104058.00;;;;5048467;28;20508;-64
2022/03/19 04:16:02;;;;;;;4.07;1.70;;;17.40;44.10;16.50;104054.00;;;;5064500;28;20055;-64
2022/03/19 04:18:48;;;;;;;2.55;1.38;;;17.40;44.10;16.40;104059.00;;;;5036125;28;20124;-64
2022/03/19 04:21:34;;;;;;;5.53;1.98;;;17.40;44.10;16.50;104059.00;;;;5070780;28;20075;-64
2022/03/19 04:24:20;;;;;;;3.28;1.63;;;17.40;44.10;16.40;104051.00;;;;5053573;28;20048;-64
2022/03/19 04:27:09;;;;;;;4.80;1.77;;;17.40;44.10;16.40;104054.00;;;;5045496;28;20052;-64
2022/03/19 04:29:56;;;;;;;4.90;1.95;;;17.40;44.10;16.40;104060.00;;;;5062816;28;20127;-64
2022/03/19 04:32:47;;;;;;;4.87;1.73;;;17.30;44.00;16.40;104057.00;;;;5059003;28;20045;-64
2022/03/19 04:38:40;;;;;;;3.92;1.70;;;17.40;44.10;16.40;104061.00;;;;5059078;28;20031;-64
2022/03/19 04:41:29;;;;;;;4.03;1.52;;;17.30;44.00;16.40;104057.00;;;;5065680;28;20052;-64
2022/03/19 04:44:16;;;;;;;5.43;2.13;;;17.30;44.00;16.40;104057.00;;;;5048306;28;20037;-64
2022/03/19 04:47:02;;;;;;;2.20;1.35;;;17.30;44.00;16.40;104052.00;;;;5056961;28;20494;-65
2022/03/19 04:49:48;;;;;;;4.32;1.75;;;17.40;44.10;16.40;104062.00;;;;5062657;28;20422;-64
2022/03/19 04:52:34;;;;;;;3.45;1.67;;;17.40;44.00;16.40;104058.00;;;;5059955;28;20047;-64
2022/03/19 04:55:21;;;;;;;3.80;1.70;;;17.30;43.90;16.40;104044.00;;;;5050765;28;20036;-64
2022/03/19 04:58:08;;;;;;;6.90;1.77;;;17.40;44.00;16.40;104057.00;;;;5039096;28;20443;-64
2022/03/19 05:00:54;;;;;;;2.72;1.45;;;17.30;44.00;16.40;104064.00;;;;5041590;28;20052;-64
2022/03/19 05:03:40;;;;;;;3.58;1.77;;;17.30;43.90;16.40;104059.00;;;;5065623;28;20359;-64
2022/03/19 05:06:26;;;;;;;5.80;1.83;;;17.30;43.90;16.40;104056.00;;;;5056652;28;20044;-64
2022/03/19 05:12:32;;;;;;;4.88;1.85;;;17.30;43.90;16.40;104063.00;;;;5064545;28;20076;-64
2022/03/19 05:15:18;;;;;;;4.22;1.90;;;17.30;43.80;16.40;104075.00;;;;5054396;28;20047;-64
2022/03/19 05:18:04;;;;;;;3.28;1.58;;;17.30;43.80;16.40;104081.00;;;;5043667;28;20091;-64
2022/03/19 05:20:51;;;;;;;5.85;2.10;;;17.30;43.80;16.40;104072.00;;;;5059494;28;20040;-64
2022/03/19 05:23:37;;;;;;;6.57;2.28;;;17.30;43.70;16.40;104078.00;;;;5060789;28;20119;-64
2022/03/19 05:26:23;;;;;;;4.38;2.00;;;17.30;43.70;16.40;104083.00;;;;5059224;28;20040;-64
2022/03/19 05:29:11;;;;;;;5.55;2.00;;;17.40;43.70;16.40;104072.00;;;;5058522;28;20505;-64
2022/03/19 05:31:58;;;;;;;4.82;1.80;;;17.30;43.60;16.40;104077.00;;;;5063404;28;20041;-64
2022/03/19 05:34:44;;;;;;;5.35;2.20;;;17.40;43.70;16.40;104080.00;;;;5061233;28;20037;-64
2022/03/19 05:37:31;;;;;;;4.88;2.00;;;17.40;43.70;16.40;104083.00;;;;5043199;28;20047;-64
2022/03/19 05:40:17;;;;;;;3.55;1.67;;;17.30;43.60;16.40;104085.00;;;;5058998;28;20095;-64
2022/03/19 05:43:03;;;;;;;3.85;1.65;;;17.40;43.60;16.40;104078.00;;;;5062334;28;20550;-64
2022/03/19 05:45:49;;;;;;;5.60;2.08;;;17.40;43.60;16.40;104086.00;;;;5046253;28;20041;-64
2022/03/19 05:48:35;;;;;;;5.25;2.08;;;17.40;43.60;16.40;104086.00;;;;5057984;28;20473;-64
2022/03/19 05:51:21;;;;;;;4.45;1.73;;;17.40;43.60;16.40;104085.00;;;;5050633;28;20047;-64
2022/03/19 05:54:07;;;;;;;5.03;2.00;;;17.40;43.60;16.40;104095.00;;;;5059986;28;20036;-64
2022/03/19 05:56:53;;;;;;;3.67;1.38;;;17.40;43.60;16.40;104087.00;;;;5062934;28;20033;-64
2022/03/19 05:59:39;;;;;;;4.40;1.50;;;17.30;43.50;16.40;104085.00;;;;5060163;28;20056;-64
2022/03/19 06:02:25;;;;;;;4.65;1.98;;;17.40;43.50;16.40;104083.00;;;;5059182;28;20383;-64
2022/03/19 06:05:11;;;;;;;5.22;1.75;;;17.40;43.50;16.40;104088.00;;;;5063985;28;20036;-64
2022/03/19 06:07:59;;;;;;;5.45;1.75;;;17.30;43.40;16.40;104093.00;;;;5048094;28;20051;-64
2022/03/19 06:10:45;;;;;;;4.90;2.05;;;17.30;43.40;16.40;104100.00;;;;5068465;28;20628;-64
2022/03/19 06:13:31;;;;;;;5.20;2.05;;;17.40;43.50;16.40;104086.00;;;;5059958;28;20044;-64
2022/03/19 06:16:17;;;;;;;3.75;1.60;;;17.40;43.50;16.40;104091.00;;;;5061795;28;20584;-64
2022/03/19 06:19:03;;;;;;;4.07;1.90;;;17.40;43.40;16.40;104095.00;;;;5061751;28;20033;-64
2022/03/19 06:21:49;;;;;;;6.80;1.85;;;17.30;43.30;16.40;104100.00;;;;5063380;28;20093;-64
2022/03/19 06:24:35;;;;;;;4.05;1.90;;;17.30;43.40;16.40;104089.00;;;;5055698;28;20132;-64
2022/03/19 06:27:22;;;;;;;4.72;1.83;;;17.30;43.30;16.40;104098.00;;;;5055901;28;20047;-64
2022/03/19 06:30:09;;;;;;;4.25;1.95;;;17.30;43.30;16.40;104091.00;;;;5059223;28;20045;-64
2022/03/19 06:32:55;;;;;;;4.45;1.88;;;17.30;43.30;16.40;104089.00;;;;5049694;28;20162;-64
2022/03/19 06:38:47;;;;;;;5.72;1.70;;;17.40;43.30;16.40;104086.00;;;;5042951;28;20394;-64
2022/03/19 06:41:33;;;;;;;4.35;1.80;;;17.40;43.30;16.40;104073.00;;;;5055205;28;20059;-64
2022/03/19 06:44:20;;;;;;;4.68;2.13;;;17.30;43.20;16.40;104081.00;;;;5056557;28;20056;-64
2022/03/19 06:47:06;;;;;;;5.88;1.83;;;17.30;43.70;16.40;104083.00;;;;5057205;28;20032;-64
2022/03/19 06:49:52;;;;;;;5.85;1.75;;;17.40;43.30;16.40;104081.00;;;;5041670;28;20047;-64
2022/03/19 06:52:38;;;;;;;4.32;1.70;;;17.40;43.30;16.40;104094.00;;;;5058800;28;20443;-64
2022/03/19 06:55:24;;;;;;;5.30;2.05;;;17.40;43.30;16.40;104091.00;;;;5059783;28;20041;-65
2022/03/19 06:58:10;;;;;;;4.50;1.70;;;17.30;43.20;16.40;104082.00;;;;5058866;28;20090;-64
2022/03/19 07:00:56;;;;;;;4.95;1.75;;;17.40;43.20;16.40;104095.00;;;;5055512;28;20036;-64
2022/03/19 07:03:46;;;;;;;4.38;2.15;;;17.40;43.30;16.40;104091.00;;;;5057862;28;20378;-64
2022/03/19 07:06:32;;;;;;;4.82;2.00;;;17.40;43.20;16.40;104084.00;;;;5059433;28;20048;-64
2022/03/19 07:09:18;;;;;;;4.72;1.67;;;17.40;43.20;16.40;104091.00;;;;5047856;28;20044;-64
2022/03/19 07:12:06;;;;;;;7.05;1.88;;;17.40;43.20;16.40;104103.00;;;;5059940;28;20029;-64
2022/03/19 07:14:52;;;;;;;7.55;2.08;;;17.40;43.10;16.40;104090.00;;;;5059134;28;20044;-64
2022/03/19 07:17:38;;;;;;;6.40;1.92;;;17.40;43.10;16.40;104093.00;;;;5056159;28;20496;-64
2022/03/19 07:20:25;;;;;;;5.93;2.17;;;17.30;43.00;16.40;104099.00;;;;5064194;28;20504;-65
2022/03/19 07:23:11;;;;;;;4.65;1.80;;;17.40;43.10;16.40;104096.00;;;;5045105;28;20047;-64
2022/03/19 07:25:59;;;;;;;5.38;1.73;;;17.40;43.00;16.40;104104.00;;;;5058367;28;20051;-64
2022/03/19 07:28:45;;;;;;;4.15;1.73;;;17.40;43.00;16.40;104095.00;;;;5066308;28;20044;-64
2022/03/19 07:31:31;;;;;;;7.82;1.98;;;17.40;43.00;16.40;104107.00;;;;5061231;28;20045;-64
2022/03/19 07:34:17;;;;;;;6.57;1.88;;;17.40;42.90;16.40;104102.00;;;;5046619;28;20044;-64
2022/03/19 07:37:04;;;;;;;4.75;1.85;;;17.40;42.90;16.40;104091.00;;;;5054838;28;20557;-64
2022/03/19 07:39:50;;;;;;;3.92;1.58;;;17.40;42.90;16.40;104086.00;;;;5056494;28;20043;-64
2022/03/19 07:42:36;;;;;;;3.28;1.40;;;17.40;42.80;16.40;104090.00;;;;5061072;28;20032;-64
2022/03/19 07:45:22;;;;;;;3.35;1.73;;;17.40;42.80;16.40;104084.00;;;;5055365;28;20051;-64
2022/03/19 07:48:09;;;;;;;3.75;1.65;;;17.40;42.80;16.40;104089.00;;;;5056319;28;20067;-64
2022/03/19 07:50:58;;;;;;;3.50;1.30;;;17.40;42.70;16.40;104076.00;;;;5049685;28;20103;-64
2022/03/19 07:53:45;;;;;;;4.22;1.48;;;17.60;42.70;16.40;104075.00;;;;5050008;28;20238;-64
2022/03/19 07:56:31;;;;;;;4.75;1.73;;;17.50;42.70;16.40;104074.00;;;;5060912;28;20115;-64
2022/03/19 07:59:17;;;;;;;4.22;1.40;;;17.50;42.60;16.40;104071.00;;;;5058052;28;20037;-64
2022/03/19 08:02:04;;;;;;;5.32;1.58;;;17.40;42.50;16.40;104070.00;;;;5056664;28;20056;-63
2022/03/19 08:04:50;;;;;;;3.22;1.52;;;17.50;42.50;16.40;104072.00;;;;5049934;28;20120;-64
2022/03/19 08:07:37;;;;;;;6.10;2.03;;;17.50;42.50;16.40;104068.00;;;;5061458;28;20456;-64
2022/03/19 08:10:24;;;;;;;4.75;1.85;;;17.50;42.50;16.50;104064.00;;;;5044948;28;20041;-64
2022/03/19 08:13:10;;;;;;;6.35;1.95;;;17.50;42.40;16.50;104086.00;;;;5057078;28;20036;-64
2022/03/19 08:15:56;;;;;;;4.10;1.52;;;17.50;42.40;16.50;104069.00;;;;5043826;28;20044;-64
2022/03/19 08:18:43;;;;;;;5.57;1.80;;;17.50;42.40;16.50;104068.00;;;;5060586;28;20044;-64
2022/03/19 08:21:29;;;;;;;4.80;1.50;;;17.50;42.40;16.50;104076.00;;;;5056634;28;20040;-63
2022/03/19 08:24:15;;;;;;;4.88;2.15;;;17.50;42.40;16.50;104079.00;;;;5055640;28;20150;-64
2022/03/19 08:27:01;;;;;;;4.45;1.38;;;17.50;42.30;16.50;104076.00;;;;5038362;28;20045;-63
2022/03/19 08:29:47;;;;;;;7.10;1.52;;;17.50;42.30;16.50;104079.00;;;;5053114;28;20482;-63
2022/03/19 08:32:34;;;;;;;4.75;1.98;;;17.50;42.20;16.50;104080.00;;;;5051010;28;20033;-65
2022/03/19 08:35:20;;;;;;;6.15;1.70;;;17.50;42.20;16.50;104080.00;;;;5054587;28;20436;-65
2022/03/19 08:41:11;;;;;;;4.60;1.45;;;17.50;42.10;16.50;104070.00;;;;5052205;28;20549;-63
2022/03/19 08:43:58;;;;;;;4.55;1.83;;;17.50;42.10;16.50;104068.00;;;;5059276;28;20216;-63
2022/03/19 08:46:44;;;;;;;7.07;2.15;;;17.50;42.00;16.50;104061.00;;;;5054429;28;20075;-64
2022/03/19 08:49:30;;;;;;;5.60;1.80;;;17.50;42.00;16.50;104057.00;;;;5059829;28;20041;-63
2022/03/19 08:52:16;;;;;;;5.25;1.67;;;17.50;42.00;16.50;104057.00;;;;5053887;28;20550;-64
2022/03/19 08:55:03;;;;;;;2.78;1.20;;;17.50;42.70;16.50;104055.00;;;;5059481;28;20037;-63
2022/03/19 08:57:50;;;;;;;3.35;1.42;;;17.60;42.00;16.50;104054.00;;;;5034989;28;20044;-63
2022/03/19 09:00:38;;;;;;;4.28;1.17;;;17.60;42.00;16.50;104051.00;;;;5053514;28;20128;-63
2022/03/19 09:03:26;;;;;;;3.55;1.13;;;17.60;41.90;16.50;104047.00;;;;5041354;28;20045;-63
2022/03/19 09:06:14;;;;;;;;;;;17.60;42.00;16.50;104046.00;;;;5053361;28;20053;-63
2022/03/19 09:09:03;;;;;;;4.10;1.48;;;17.60;42.10;16.50;104034.00;;;;5061624;28;19916;-63
2022/03/19 09:11:49;;;;;;;4.95;1.40;;;17.60;41.80;16.50;104035.00;;;;5058070;28;20169;-63
2022/03/19 09:14:35;;;;;;;3.13;1.42;;;17.60;41.70;16.50;104037.00;;;;5059777;28;20029;-64
2022/03/19 09:17:21;;;;;;;5.07;1.77;;;17.60;41.70;16.50;104036.00;;;;5044481;28;20233;-64
2022/03/19 09:20:10;;;;;;;6.38;1.45;;;17.60;41.70;16.50;104033.00;;;;5049109;28;20060;-63
2022/03/19 09:22:56;;;;;;;5.90;1.13;;;17.60;41.60;16.60;104028.00;;;;5020331;28;20100;-63
2022/03/19 09:25:42;;;;;;;4.05;1.10;;;17.60;41.60;16.60;104023.00;;;;5061148;28;20044;-64
2022/03/19 09:28:28;;;;;;;3.25;1.27;;;17.60;41.50;16.60;104023.00;;;;5056339;28;20040;-63
2022/03/19 09:31:16;;;;;;;4.85;1.55;;;17.60;41.50;16.60;104028.00;;;;5062062;28;20045;-63
2022/03/19 09:34:02;;;;;;;5.32;1.65;;;17.60;41.40;16.60;104019.00;;;;5063325;28;20044;-63
2022/03/19 09:36:48;;;;;;;3.10;1.20;;;17.60;41.40;16.60;104018.00;;;;5050540;28;20076;-63
2022/03/19 09:39:35;;;;;;;4.22;1.52;;;17.60;41.40;16.60;104019.00;;;;5069111;28;20093;-63
2022/03/19 09:42:21;;;;;;;2.40;1.25;;;17.60;41.30;16.60;104014.00;;;;5060110;28;20168;-64
2022/03/19 09:45:07;;;;;;;5.35;1.17;;;17.60;41.30;16.60;104005.00;;;;5052464;28;20079;-63
2022/03/19 09:47:54;;;;;;;3.03;1.05;;;17.60;41.20;16.60;104000.00;;;;5060931;28;20072;-64
2022/03/19 09:50:41;;;;;;;5.07;1.38;;;17.70;41.30;16.60;104005.00;;;;5062544;28;20040;-63
2022/03/19 09:53:30;;;;;;;3.55;1.30;;;17.70;41.20;16.60;104003.00;;;;5083766;28;20036;-63
2022/03/19 09:56:16;;;;;;;5.22;1.40;;;17.60;41.10;16.60;104001.00;;;;5060504;28;20048;-63
2022/03/19 09:59:02;;;;;;;3.10;1.00;;;17.70;41.10;16.60;103988.00;;;;5047352;28;20221;-64
2022/03/19 10:01:49;;;;;;;5.70;1.45;;;17.70;41.10;16.60;103998.00;;;;5042014;28;20099;-63
2022/03/19 10:04:39;;;;;;;4.38;1.05;;;17.70;41.10;16.60;103982.00;;;;5049651;28;20401;-63
2022/03/19 10:10:31;;;;;;;3.03;1.15;;;17.70;41.10;16.60;103977.00;;;;5063447;28;20048;-64
2022/03/19 10:13:17;;;;;;;5.35;1.17;;;17.70;41.00;16.60;103970.00;;;;5060381;28;20033;-63
2022/03/19 10:16:03;;;;;;;4.63;1.38;;;17.70;41.10;16.60;103964.00;;;;5059967;28;20099;-64
2022/03/19 10:19:00;;;;;;;4.88;1.45;;;17.70;41.00;16.60;103964.00;;;;5042170;28;20469;-63
2022/03/19 10:21:46;;;;;;;3.80;1.50;;;17.70;40.90;16.70;103965.00;;;;5064262;28;20040;-63
2022/03/19 10:24:35;;;;;;;5.00;1.30;;;17.70;41.00;16.70;103952.00;;;;5050204;28;20055;-63
2022/03/19 10:27:21;;;;;;;6.85;1.60;;;17.70;40.90;16.70;103953.00;;;;5044053;28;20506;-63
2022/03/19 10:30:15;;;;;;;4.53;1.10;;;17.70;40.90;16.70;103950.00;;;;5055523;28;20041;-63
2022/03/19 10:33:01;;;;;;;2.85;1.13;;;17.70;40.80;16.70;103947.00;;;;5062876;28;20037;-63
2022/03/19 10:35:47;;;;;;;3.80;0.90;;;17.70;40.70;16.70;103942.00;;;;5082975;28;20096;-64
2022/03/19 10:38:44;;;;;;;3.92;1.00;;;17.70;40.50;16.70;103941.00;;;;5078110;28;20039;-63
2022/03/19 10:41:34;;;;;;;4.32;1.10;;;17.70;40.30;16.70;103946.00;;;;5076234;28;20055;-64
2022/03/19 10:44:28;;;;;;;2.88;1.08;;;17.70;40.20;16.70;103937.00;;;;5076180;28;20051;-63
2022/03/19 10:47:14;;;;;;;3.00;0.73;;;17.80;40.30;16.70;103933.00;;;;5049472;28;20444;-63
2022/03/19 10:50:00;;;;;;;3.08;0.65;;;17.80;40.30;16.70;103924.00;;;;5019818;28;20045;-64
2022/03/19 10:52:47;;;;;;;3.22;0.88;;;17.80;40.20;16.70;103921.00;;;;5059529;28;20048;-70
2022/03/19 10:55:34;;;;;;;3.10;1.00;;;17.80;40.10;16.70;103910.00;;;;5062683;28;20072;-63
2022/03/19 10:58:20;;;;;;;2.22;0.75;;;17.80;40.10;16.70;103915.00;;;;5058766;28;20033;-63
2022/03/19 11:01:07;;;;;;;3.67;0.70;;;17.80;40.00;16.70;103922.00;;;;5057534;28;20044;-63
2022/03/19 11:03:54;;;;;;;2.88;0.88;;;17.80;40.10;16.70;103906.00;;;;5043895;28;20040;-63
2022/03/19 11:06:41;;;;;;;1.70;0.70;;;17.80;40.00;16.70;103903.00;;;;5045983;28;20043;-62
2022/03/19 11:09:27;;;;;;;2.05;0.70;;;17.80;39.90;16.70;103897.00;;;;5045032;28;20479;-62
2022/03/19 11:12:14;;;;;;;1.45;0.60;;;17.80;40.50;16.70;103887.00;;;;5055899;28;20491;-63
2022/03/19 11:15:03;;;;;;;1.75;0.68;;;17.80;39.70;16.70;103895.00;;;;5011664;28;20132;-63
2022/03/19 11:17:50;;;;;;;4.03;0.65;;;17.80;39.60;16.70;103888.00;;;;5039442;28;20048;-62
2022/03/19 11:20:36;;;;;;;2.43;0.43;;;17.80;39.50;16.70;103881.00;;;;5057651;28;20044;-63
2022/03/19 11:23:26;;;;;;;3.20;0.90;;;17.90;39.50;16.70;103879.00;;;;5055337;28;20044;-63
2022/03/19 11:26:14;;;;;;;3.58;1.05;;;17.80;39.40;16.80;103871.00;;;;5028730;28;20044;-63
2022/03/19 11:29:00;;;;;;;1.83;1.05;;;17.90;39.40;16.80;103869.00;;;;5048154;28;20043;-63
2022/03/19 11:32:01;;;;;;;2.15;0.50;;;17.90;39.40;16.80;103856.00;;;;5031232;28;20045;-62
2022/03/19 11:34:48;;;;;;;2.22;0.90;;;17.80;39.10;16.80;103861.00;;;;5046855;28;20505;-63
2022/03/19 11:38:03;;;;;;;1.35;0.38;;;17.90;39.30;16.80;103848.00;;;;5060456;28;20032;-63
2022/03/19 11:40:57;;;;;;;2.47;0.70;;;17.90;39.10;16.80;103830.00;;;;5056893;28;20044;-63
2022/03/19 11:43:43;;;;;;;2.75;0.50;;;17.90;39.00;16.80;103834.00;;;;5033125;28;20039;-63
2022/03/19 11:46:29;;;;;;;2.28;0.50;;;17.90;38.90;16.80;103825.00;;;;5054468;28;20150;-63
2022/03/19 11:49:54;;;;;;;1.45;0.47;;;17.90;38.80;16.80;103813.00;;;;5051238;28;20055;-63
2022/03/19 11:53:01;;;;;;;2.50;0.55;;;17.90;38.70;16.80;103825.00;;;;5053449;28;20087;-63
2022/03/19 11:55:48;;;;;;;3.38;0.70;;;17.90;38.70;16.80;103819.00;;;;5046768;28;20425;-65
2022/03/19 11:58:36;;;;;;;1.23;0.40;;;17.90;38.50;16.80;103817.00;;;;5046646;28;20074;-62
2022/03/19 12:01:49;;;;;;;7.38;0.70;;;17.90;38.60;16.80;103809.00;;;;5048606;28;20060;-65
2022/03/19 12:05:15;;;;;;;4.38;0.68;;;17.90;38.30;16.80;103797.00;;;;5037449;28;20044;-63
2022/03/19 12:08:21;;;;;;;2.33;0.40;;;17.90;38.00;16.80;103797.00;;;;5055920;28;20040;-65
2022/03/19 12:11:14;;;;;;;4.03;0.75;;;17.90;38.10;16.80;103787.00;;;;5062138;28;20394;-65
2022/03/19 12:14:00;;;;;;;3.70;0.70;;;18.00;37.90;16.80;103777.00;;;;5029745;28;20032;-65
2022/03/19 12:16:46;;;;;;;4.38;0.50;;;18.00;38.00;16.80;103787.00;;;;5028444;28;20041;-66
2022/03/19 12:20:00;;;;;;;1.25;0.50;;;18.00;37.90;16.80;103780.00;;;;5061777;28;20052;-63
2022/03/19 12:22:46;;;;;;;1.75;0.50;;;18.00;37.80;16.90;103773.00;;;;5040282;28;20033;-65
2022/03/19 12:25:34;;;;;;;3.47;0.50;;;18.00;37.90;16.90;103771.00;;;;5034425;28;20119;-64
2022/03/19 12:28:20;;;;;;;2.50;0.63;;;18.00;37.80;16.90;103765.00;;;;5036155;28;20068;-64
2022/03/19 12:31:14;;;;;;;1.08;0.40;;;18.00;37.80;16.90;103757.00;;;;5057467;28;20036;-81
2022/03/19 12:34:00;;;;;;;3.25;0.60;;;18.00;37.60;16.90;103752.00;;;;5056899;28;20036;-62